Stations météo

réclame
Mon MeteoGroup
Arties, Espagne (8107): Température de l'air & dewpoint: 09.11.2018 22:00:00 - 15.11.2018 22:00:00 (CET)Arties, Espagne (8107): Vitesse du vent & gusts: 09.11.2018 22:00:00 - 15.11.2018 22:00:00 (CET)Arties, Espagne (8107): Direction du vent: 09.11.2018 22:00:00 - 15.11.2018 22:00:00 (CET)Arties, Espagne (8107): Quantités de précipitations: 09.11.2018 22:00:00 - 15.11.2018 22:00:00 (CET)
Date & Time tt [°C] td [°C] ff [km/h] ff [knt] fx [km/h] fx [knt] dd rr [mm]
15.11.2018 22:00:00 7,4 4,6 0 0 3 2 N 0,0
15.11.2018 21:00:00 9,6 5,1 0 0 8 5 E 0,0
15.11.2018 20:00:00 10,4 4,8 4 2 13 7 E 0,0
15.11.2018 19:00:00 10,2 5,0 5 3 13 7 E -
15.11.2018 18:00:00 10,9 5,3 4 2 11 6 E 0,0
15.11.2018 17:00:00 13,1 5,9 4 2 14 8 ENE 0,0
15.11.2018 16:00:00 14,3 5,6 7 4 18 10 ENE 0,0
15.11.2018 15:00:00 14,3 5,6 7 4 13 7 ENE 0,0
15.11.2018 14:00:00 14,8 5,8 1 1 5 3 SW 0,0
15.11.2018 13:00:00 14,4 5,9 0 0 4 2 N -
15.11.2018 12:00:00 13,7 5,6 1 0 6 3 WSW 0,0
15.11.2018 11:00:00 12,9 5,1 0 0 13 7 SW 0,0
15.11.2018 10:00:00 10,1 3,8 6 3 14 8 E 0,0
15.11.2018 09:00:00 8,6 2,5 6 3 16 8 ESE 0,0
15.11.2018 08:00:00 7,7 1,9 5 3 19 10 SE 0,0
15.11.2018 07:00:00 7,8 1,9 6 3 16 9 ESE -
15.11.2018 06:00:00 7,9 1,9 6 4 18 10 ESE 0,0
15.11.2018 05:00:00 7,5 1,7 6 3 16 9 E 0,0
15.11.2018 04:00:00 7,2 1,9 3 2 16 9 E 0,0
15.11.2018 03:00:00 8,1 1,9 7 4 18 10 E 0,0
15.11.2018 02:00:00 8,2 2,1 7 4 17 9 E 0,0
15.11.2018 01:00:00 7,8 2,3 4 2 15 8 ENE -
15.11.2018 00:00:00 8,2 2,7 5 3 18 10 E 0,0
14.11.2018 23:00:00 6,4 2,7 3 2 13 7 ENE 0,0
14.11.2018 22:00:00 8,3 3,4 5 3 14 8 E 0,0
14.11.2018 21:00:00 8,6 3,4 5 3 18 10 E 0,0
14.11.2018 20:00:00 9,1 3,8 5 3 16 9 ENE 0,0
14.11.2018 19:00:00 9,7 4,3 7 4 14 8 E -
14.11.2018 18:00:00 10,1 4,5 7 4 13 7 ENE 0,0
14.11.2018 17:00:00 11,6 4,8 4 2 11 6 E 0,0
14.11.2018 16:00:00 12,3 4,5 3 2 8 5 E 0,0
14.11.2018 15:00:00 16,1 4,8 1 1 14 8 W 0,0
14.11.2018 14:00:00 17,3 5,0 4 2 14 8 ENE 0,0
14.11.2018 13:00:00 15,4 6,1 4 2 11 6 ENE -
14.11.2018 12:00:00 13,5 5,5 4 2 13 7 ESE 0,0
14.11.2018 11:00:00 8,5 4,6 1 1 4 2 E 0,0
14.11.2018 10:00:00 8,0 2,5 0 0 16 9 E 0,0
14.11.2018 09:00:00 9,2 1,9 5 3 14 8 E 0,0
14.11.2018 08:00:00 6,7 1,5 5 3 17 9 ESE 0,0
14.11.2018 07:00:00 7,4 1,1 5 3 16 9 E -
14.11.2018 06:00:00 5,5 2,1 2 1 10 6 E 0,0
14.11.2018 05:00:00 5,4 2,1 2 1 12 7 E 0,0
14.11.2018 04:00:00 5,2 2,3 3 2 12 6 ENE 0,0
14.11.2018 03:00:00 5,5 2,3 2 1 12 6 E 0,0
14.11.2018 02:00:00 5,1 1,9 0 0 10 6 ESE 0,0
14.11.2018 01:00:00 6,1 2,1 3 2 17 9 ENE -
14.11.2018 00:00:00 6,9 2,7 5 3 14 7 E 0,0
13.11.2018 23:00:00 5,2 3,2 0 0 9 5 NE 0,0
13.11.2018 22:00:00 4,7 3,2 3 2 8 5 ENE 0,0
13.11.2018 21:00:00 5,1 3,0 4 2 11 6 ENE 0,0
13.11.2018 20:00:00 4,8 3,8 1 0 5 3 ENE 0,0
13.11.2018 19:00:00 5,8 4,6 0 0 4 2 N -
13.11.2018 18:00:00 7,2 5,8 0 0 3 2 N 0,0
13.11.2018 17:00:00 8,8 6,5 0 0 1 0 N 0,0
13.11.2018 16:00:00 10,7 7,0 1 0 4 2 E 0,0
13.11.2018 15:00:00 13,2 6,1 2 1 8 5 SSE 0,0
13.11.2018 14:00:00 14,1 6,2 3 2 12 6 SSW 0,0
13.11.2018 13:00:00 14,4 6,2 3 2 10 5 SW -
13.11.2018 12:00:00 11,2 5,3 3 2 9 5 ESE 0,0
13.11.2018 11:00:00 7,2 5,1 0 0 0 0 N 0,0
13.11.2018 10:00:00 7,0 4,3 0 0 6 4 NNE 0,0
13.11.2018 09:00:00 7,1 3,6 4 2 13 7 E 0,0
13.11.2018 08:00:00 5,9 3,2 6 4 11 6 ENE 0,0
13.11.2018 07:00:00 6,6 3,0 4 2 14 8 E -
13.11.2018 06:00:00 8,2 3,8 7 4 13 7 ENE 0,0
13.11.2018 05:00:00 8,6 5,0 5 3 9 5 NE 0,0
13.11.2018 04:00:00 8,8 6,1 2 1 5 3 ENE 0,0
13.11.2018 03:00:00 8,8 7,1 0 0 1 0 NE 0,0
13.11.2018 02:00:00 8,9 7,3 1 1 8 4 SSE 0,0
13.11.2018 01:00:00 8,4 7,3 1 1 11 6 NW -
13.11.2018 00:00:00 8,6 2,9 2 1 10 5 SSW 0,0
12.11.2018 23:00:00 10,8 3,4 5 3 12 7 E 0,0
12.11.2018 22:00:00 10,7 3,2 8 5 12 7 ENE 0,0
12.11.2018 21:00:00 10,1 3,8 3 2 15 8 E 0,0
12.11.2018 20:00:00 11,6 4,1 7 4 16 9 ENE 0,0
12.11.2018 19:00:00 11,1 4,1 6 3 21 11 ENE -
12.11.2018 18:00:00 11,6 4,1 8 4 14 7 NE 0,0
12.11.2018 17:00:00 15,5 4,3 0 0 27 15 W 0,0
12.11.2018 16:00:00 15,8 4,5 7 4 29 16 WNW 0,0
12.11.2018 15:00:00 16,9 5,1 5 3 27 15 N 0,0
12.11.2018 14:00:00 17,5 5,1 5 3 26 14 W 0,0
12.11.2018 13:00:00 17,4 5,3 4 2 20 11 NW -
12.11.2018 12:00:00 17,1 5,6 3 2 17 9 S 0,0
12.11.2018 11:00:00 14,2 5,3 7 4 16 9 ENE 0,0
12.11.2018 10:00:00 11,9 4,3 7 4 17 9 E 0,0
12.11.2018 09:00:00 9,5 3,4 7 4 18 10 ENE 0,0
12.11.2018 08:00:00 9,2 3,2 7 4 17 9 ENE 0,0
12.11.2018 07:00:00 9,7 3,6 7 4 16 9 ENE -
12.11.2018 06:00:00 9,2 3,0 7 4 15 8 ENE 0,0
12.11.2018 05:00:00 11,0 2,5 4 2 32 18 E 0,0
12.11.2018 04:00:00 13,8 3,8 9 5 37 20 W 0,0
12.11.2018 03:00:00 14,3 3,9 11 6 36 19 WNW 0,0
12.11.2018 02:00:00 12,4 3,8 5 3 44 24 W 0,0
12.11.2018 01:00:00 14,7 4,3 6 3 37 20 WNW -
12.11.2018 00:00:00 14,6 4,3 3 2 32 17 NW 0,0
11.11.2018 23:00:00 12,9 4,3 4 2 25 14 W 0,0
11.11.2018 22:00:00 10,5 4,1 5 3 23 12 ENE 0,0
11.11.2018 21:00:00 11,6 4,8 7 4 17 9 E 0,0
11.11.2018 20:00:00 10,7 4,3 6 3 17 9 E 0,0
11.11.2018 19:00:00 10,8 5,1 6 3 21 12 E -
11.11.2018 18:00:00 11,7 5,3 5 3 20 11 ENE 0,0
11.11.2018 17:00:00 12,4 6,2 5 3 9 5 ENE 0,0
11.11.2018 16:00:00 13,6 6,2 1 0 11 6 ENE 0,0
11.11.2018 15:00:00 17,4 4,3 3 2 18 10 NE 0,0
11.11.2018 14:00:00 19,5 5,1 5 3 19 11 WSW 0,0
11.11.2018 13:00:00 18,2 4,6 4 2 15 8 N -
11.11.2018 12:00:00 15,9 4,3 8 4 27 14 NE 0,0
11.11.2018 11:00:00 12,4 3,8 6 4 19 10 E 0,0
11.11.2018 10:00:00 9,9 3,6 5 3 21 11 E 0,0
11.11.2018 09:00:00 8,5 2,3 5 3 16 8 ESE 0,0
11.11.2018 08:00:00 7,4 1,3 1 1 24 13 SE 0,0
11.11.2018 07:00:00 7,2 1,9 2 1 13 7 ENE -
11.11.2018 06:00:00 8,3 2,5 4 2 14 8 E 0,0
11.11.2018 05:00:00 7,8 2,5 4 2 18 10 E 0,0
11.11.2018 04:00:00 6,3 1,5 4 2 16 9 E 0,0
11.11.2018 03:00:00 7,1 1,9 6 3 18 10 E 0,0
11.11.2018 02:00:00 6,9 2,3 6 4 17 9 E 0,0
11.11.2018 01:00:00 5,8 3,4 4 2 12 7 E -
11.11.2018 00:00:00 5,3 3,8 0 0 9 5 ESE 0,0
10.11.2018 23:00:00 5,9 4,5 2 1 8 4 ENE 0,0
10.11.2018 22:00:00 7,3 5,0 1 1 10 5 E 0,0
10.11.2018 21:00:00 8,3 5,3 3 2 19 10 E 0,0
10.11.2018 20:00:00 10,2 5,3 4 2 18 10 E 0,0
10.11.2018 19:00:00 10,4 5,6 6 3 15 8 E -
10.11.2018 18:00:00 10,0 6,1 4 2 10 5 E 0,0
10.11.2018 17:00:00 12,9 5,1 2 1 14 8 SSW 0,0
10.11.2018 16:00:00 15,2 4,3 4 2 21 11 SW 0,0
10.11.2018 15:00:00 16,6 4,3 6 3 18 10 W 0,0
10.11.2018 14:00:00 17,3 5,9 3 2 13 7 W 0,0
10.11.2018 13:00:00 17,8 6,1 3 1 16 8 SW -
10.11.2018 12:00:00 15,3 6,2 5 3 14 8 ENE 0,0
10.11.2018 11:00:00 10,0 5,0 5 3 20 11 E 0,0
10.11.2018 10:00:00 9,5 3,2 5 3 22 12 ESE 0,0
10.11.2018 09:00:00 7,7 2,9 5 3 18 10 ESE 0,0
10.11.2018 08:00:00 6,9 2,7 5 3 18 10 E 0,0
10.11.2018 07:00:00 7,2 2,7 5 3 18 10 E -
10.11.2018 06:00:00 7,5 3,9 5 3 18 10 ESE 0,0
10.11.2018 05:00:00 7,6 4,3 6 4 16 9 E 0,1
10.11.2018 04:00:00 6,9 3,8 5 3 10 5 E 0,0
10.11.2018 03:00:00 5,7 3,6 0 0 13 7 ESE 0,0
10.11.2018 02:00:00 5,6 2,9 3 2 15 8 E 0,0
10.11.2018 01:00:00 5,8 2,7 5 3 15 8 E -
10.11.2018 00:00:00 4,2 2,7 2 1 11 6 ENE 0,0
09.11.2018 23:00:00 4,5 2,3 4 2 13 7 ENE 0,0
09.11.2018 22:00:00 3,2 1,5 0 0 15 8 SSE 0,1

tt = Température de l'air
td = dewpoint
ff = Vitesse du vent
fx = gusts
dd = Direction du vent
rr = Quantités de précipitations

stations d'obs. à proximité